createdAt,value
2023-04-09T00:00:43.967Z,12.70
2023-04-09T00:03:10.901Z,15.60
2023-04-09T00:05:41.444Z,17.15
2023-04-09T00:08:08.351Z,18.02
2023-04-09T00:10:35.275Z,18.95
2023-04-09T00:13:02.098Z,16.05
2023-04-09T00:15:31.600Z,17.17
2023-04-09T00:17:59.443Z,15.70
2023-04-09T00:20:26.389Z,17.58
2023-04-09T00:22:53.191Z,16.40
2023-04-09T00:25:20.242Z,20.50
2023-04-09T00:27:47.181Z,16.52
2023-04-09T00:30:14.123Z,19.58
2023-04-09T00:32:41.275Z,16.50
2023-04-09T00:35:08.863Z,17.15
2023-04-09T00:37:35.849Z,18.38
2023-04-09T00:40:03.130Z,20.73
2023-04-09T00:42:34.237Z,16.88
2023-04-09T00:45:01.263Z,19.73
2023-04-09T00:47:29.043Z,18.92
2023-04-09T00:49:56.234Z,16.80
2023-04-09T00:52:23.684Z,19.73
2023-04-09T00:54:51.740Z,21.85
2023-04-09T00:57:19.456Z,14.98
2023-04-09T00:59:46.481Z,17.90
2023-04-09T01:02:13.381Z,25.80
2023-04-09T01:04:42.868Z,20.48
2023-04-09T01:07:34.371Z,22.75
2023-04-09T01:10:31.663Z,15.73
2023-04-09T01:13:08.916Z,23.00
2023-04-09T01:15:44.391Z,21.15
2023-04-09T01:18:19.038Z,21.27
2023-04-09T01:20:57.388Z,21.33
2023-04-09T01:23:47.909Z,23.13
2023-04-09T01:27:03.397Z,26.30
2023-04-09T01:29:52.894Z,18.48
2023-04-09T01:32:22.529Z,22.58
2023-04-09T01:34:50.567Z,23.73
2023-04-09T01:37:19.307Z,22.20
2023-04-09T01:39:46.814Z,21.00
2023-04-09T01:42:17.612Z,21.60
2023-04-09T01:44:46.331Z,20.88
2023-04-09T01:47:13.625Z,26.20
2023-04-09T01:49:41.613Z,18.08
2023-04-09T01:52:09.524Z,22.98
2023-04-09T01:54:36.420Z,18.20
2023-04-09T01:57:03.101Z,20.02
2023-04-09T01:59:29.925Z,26.58
2023-04-09T02:02:01.738Z,25.02
2023-04-09T02:04:41.594Z,27.70
2023-04-09T02:07:08.561Z,20.63
2023-04-09T02:09:39.228Z,22.25
2023-04-09T02:12:10.544Z,29.27
2023-04-09T02:14:38.748Z,21.20
2023-04-09T02:17:05.803Z,23.58
2023-04-09T02:19:43.211Z,24.35
2023-04-09T02:22:10.734Z,25.95
2023-04-09T02:24:38.201Z,29.33
2023-04-09T02:27:06.277Z,22.30
2023-04-09T02:29:33.284Z,20.38
2023-04-09T02:32:00.160Z,31.77
2023-04-09T02:34:27.372Z,23.13
2023-04-09T02:36:54.028Z,34.00
2023-04-09T02:39:20.919Z,31.83
2023-04-09T02:41:47.582Z,25.40
2023-04-09T02:44:14.333Z,31.98
2023-04-09T02:46:42.501Z,21.25
2023-04-09T02:49:09.379Z,25.77
2023-04-09T02:51:36.424Z,26.52
2023-04-09T02:54:04.216Z,31.15
2023-04-09T02:56:31.110Z,28.00
2023-04-09T02:58:57.832Z,32.30
2023-04-09T03:01:24.708Z,31.20
2023-04-09T03:03:51.544Z,33.83
2023-04-09T03:06:18.688Z,31.70
2023-04-09T03:08:45.737Z,28.70
2023-04-09T03:11:12.473Z,30.05
2023-04-09T03:13:39.175Z,31.27
2023-04-09T03:16:06.518Z,30.02
2023-04-09T03:18:33.284Z,30.08
2023-04-09T03:21:00.146Z,31.05
2023-04-09T03:23:30.914Z,36.13
2023-04-09T03:26:06.119Z,38.35
2023-04-09T03:28:43.607Z,32.22
2023-04-09T03:31:10.347Z,28.75
2023-04-09T03:33:40.188Z,36.92
2023-04-09T03:36:08.902Z,28.27
2023-04-09T03:38:55.711Z,33.83
2023-04-09T03:41:30.283Z,34.55
2023-04-09T03:43:59.741Z,30.63
2023-04-09T03:46:31.699Z,27.92
2023-04-09T03:49:00.520Z,31.40
2023-04-09T03:51:36.453Z,29.10
2023-04-09T03:54:03.569Z,27.33
2023-04-09T03:56:30.713Z,35.00
2023-04-09T03:58:58.229Z,29.33
2023-04-09T04:01:34.814Z,26.70
2023-04-09T04:04:01.968Z,29.33
2023-04-09T04:06:35.638Z,32.47
2023-04-09T04:09:12.371Z,29.73
2023-04-09T04:11:47.967Z,33.28
2023-04-09T04:14:15.746Z,31.75
2023-04-09T04:16:45.831Z,34.85
2023-04-09T04:19:16.665Z,27.60
2023-04-09T04:21:47.590Z,37.33
2023-04-09T04:24:14.372Z,31.08
2023-04-09T04:26:41.737Z,37.13
2023-04-09T04:29:10.370Z,35.35
2023-04-09T04:31:53.891Z,33.78
2023-04-09T04:34:23.643Z,27.73
2023-04-09T04:36:58.494Z,30.38
2023-04-09T04:39:31.038Z,34.13
2023-04-09T04:44:30.288Z,36.15
2023-04-09T04:47:09.667Z,34.80
2023-04-09T04:49:36.480Z,34.33
2023-04-09T04:52:07.464Z,32.75
2023-04-09T04:54:34.862Z,41.78
2023-04-09T04:57:01.883Z,30.80
2023-04-09T04:59:38.778Z,33.25
2023-04-09T05:02:07.872Z,34.05
2023-04-09T05:04:44.900Z,37.17
2023-04-09T05:07:14.861Z,38.55
2023-04-09T05:09:49.045Z,37.75
2023-04-09T05:12:17.855Z,38.08
2023-04-09T05:14:48.507Z,36.55
2023-04-09T05:17:15.572Z,46.88
2023-04-09T05:19:44.638Z,37.10
2023-04-09T05:22:12.801Z,40.42
2023-04-09T05:24:39.535Z,38.40
2023-04-09T05:27:06.405Z,30.77
2023-04-09T05:29:33.235Z,34.65
2023-04-09T05:32:00.761Z,35.67
2023-04-09T05:34:32.259Z,39.60
2023-04-09T05:36:59.785Z,37.88
2023-04-09T05:39:26.629Z,34.40
2023-04-09T05:41:54.835Z,35.72
2023-04-09T05:44:21.644Z,38.65
2023-04-09T05:46:51.349Z,34.28
2023-04-09T05:49:23.145Z,29.35
2023-04-09T05:51:52.721Z,34.67
2023-04-09T05:54:26.118Z,38.10
2023-04-09T05:56:53.170Z,35.17
2023-04-09T05:59:20.856Z,34.08
2023-04-09T06:01:47.604Z,35.78
2023-04-09T06:04:14.463Z,37.45
2023-04-09T06:06:41.330Z,33.60
2023-04-09T06:09:08.134Z,35.25
2023-04-09T06:11:38.352Z,60.45
2023-04-09T06:14:05.417Z,43.55
2023-04-09T06:16:33.443Z,42.25
2023-04-09T06:19:00.213Z,39.78
2023-04-09T06:21:26.953Z,35.63
2023-04-09T06:23:54.283Z,36.00
2023-04-09T06:26:21.415Z,31.90
2023-04-09T06:28:48.267Z,39.55
2023-04-09T06:31:15.513Z,32.65
2023-04-09T06:33:42.452Z,42.45
2023-04-09T06:36:09.400Z,31.50
2023-04-09T06:38:36.144Z,40.38
2023-04-09T06:41:03.664Z,41.28
2023-04-09T06:43:30.574Z,33.08
2023-04-09T06:45:58.399Z,31.60
2023-04-09T06:48:25.251Z,38.00
2023-04-09T06:50:52.091Z,33.70
2023-04-09T06:53:19.040Z,34.45
2023-04-09T06:55:46.212Z,34.08
2023-04-09T06:58:13.245Z,39.15
2023-04-09T07:00:40.178Z,39.63
2023-04-09T07:03:09.098Z,29.38
2023-04-09T07:05:36.452Z,36.42
2023-04-09T07:08:04.091Z,36.03
2023-04-09T07:10:30.955Z,30.40
2023-04-09T07:12:57.675Z,28.75
2023-04-09T07:15:25.688Z,28.75
2023-04-09T07:17:52.579Z,32.13
2023-04-09T07:20:19.386Z,36.33
2023-04-09T07:22:46.339Z,29.25
2023-04-09T07:25:13.121Z,35.00
2023-04-09T07:27:39.986Z,31.83
2023-04-09T07:30:07.314Z,36.92
2023-04-09T07:32:34.286Z,32.83
2023-04-09T07:35:02.279Z,38.75
2023-04-09T07:37:28.975Z,31.17
2023-04-09T07:39:56.714Z,33.38
2023-04-09T07:42:23.547Z,30.05
2023-04-09T07:44:50.416Z,31.08
2023-04-09T07:47:17.225Z,35.40
2023-04-09T07:49:43.924Z,35.75
2023-04-09T07:52:10.791Z,26.20
2023-04-09T07:54:37.591Z,38.22
2023-04-09T07:57:04.365Z,33.85
2023-04-09T07:59:31.609Z,32.75
2023-04-09T08:01:59.115Z,27.05
2023-04-09T08:04:27.022Z,42.60
2023-04-09T08:06:53.919Z,35.42
2023-04-09T08:09:21.411Z,30.50
2023-04-09T08:11:49.557Z,38.42
2023-04-09T08:14:17.484Z,35.10
2023-04-09T08:16:47.161Z,33.90
2023-04-09T08:19:16.253Z,38.67
2023-04-09T08:21:43.801Z,27.90
2023-04-09T08:24:13.378Z,36.30
2023-04-09T08:26:41.230Z,35.95
2023-04-09T08:29:09.119Z,39.22
2023-04-09T08:31:37.302Z,33.00
2023-04-09T08:34:04.677Z,36.90
2023-04-09T08:36:32.443Z,35.85
2023-04-09T08:39:00.469Z,33.97
2023-04-09T08:41:29.364Z,42.72
2023-04-09T08:43:58.958Z,32.78
2023-04-09T08:46:27.164Z,33.97
2023-04-09T08:48:54.468Z,33.92
2023-04-09T08:51:23.392Z,29.98
2023-04-09T08:53:56.422Z,32.58
2023-04-09T08:56:23.855Z,22.67
2023-04-09T08:58:51.326Z,31.80
2023-04-09T09:01:26.999Z,35.53
2023-04-09T09:04:08.142Z,42.83
2023-04-09T09:06:37.116Z,32.53
2023-04-09T09:09:17.472Z,34.40
2023-04-09T09:11:50.100Z,38.53
2023-04-09T09:14:18.975Z,38.30
2023-04-09T09:16:58.073Z,41.72
2023-04-09T09:19:24.952Z,26.40
2023-04-09T09:22:04.955Z,31.58
2023-04-09T09:24:35.066Z,28.02
2023-04-09T09:27:02.564Z,29.48
2023-04-09T09:29:29.694Z,34.55
2023-04-09T09:31:56.866Z,33.17
2023-04-09T09:34:25.498Z,29.88
2023-04-09T09:36:52.381Z,29.85
2023-04-09T09:39:19.287Z,27.95
2023-04-09T09:41:47.527Z,26.13
2023-04-09T09:44:32.233Z,28.70
2023-04-09T09:46:59.572Z,31.40
2023-04-09T09:49:26.629Z,28.50
2023-04-09T09:51:56.800Z,31.45
2023-04-09T09:54:27.008Z,29.95
2023-04-09T09:56:58.042Z,32.03
2023-04-09T09:59:30.917Z,31.25
2023-04-09T10:02:04.169Z,25.90
2023-04-09T10:04:35.697Z,28.42
2023-04-09T10:07:05.763Z,27.73
2023-04-09T10:09:37.611Z,31.65
2023-04-09T10:12:07.029Z,34.75
2023-04-09T10:14:35.832Z,28.30
2023-04-09T10:17:04.001Z,22.60
2023-04-09T10:19:41.936Z,29.08
2023-04-09T10:22:12.258Z,28.08
2023-04-09T10:24:39.254Z,24.65
2023-04-09T10:27:17.346Z,26.13
2023-04-09T10:29:49.278Z,28.08
2023-04-09T10:32:21.545Z,23.40
2023-04-09T10:34:50.628Z,25.20
2023-04-09T10:37:22.124Z,24.67
2023-04-09T10:39:51.437Z,26.73
2023-04-09T10:42:27.330Z,25.55
2023-04-09T10:45:14.786Z,23.90
2023-04-09T10:47:43.775Z,20.90
2023-04-09T10:50:19.804Z,25.52
2023-04-09T10:52:47.782Z,21.73
2023-04-09T10:55:37.325Z,26.83
2023-04-09T10:58:11.973Z,21.98
2023-04-09T11:00:41.700Z,18.98
2023-04-09T11:03:26.049Z,19.58
2023-04-09T11:06:08.993Z,15.73
2023-04-09T11:08:37.976Z,20.13
2023-04-09T11:11:04.838Z,22.95
2023-04-09T11:13:32.459Z,19.88
2023-04-09T11:16:01.435Z,21.13
2023-04-09T11:18:30.795Z,25.08
2023-04-09T11:20:59.628Z,18.90
2023-04-09T11:23:26.636Z,18.50
2023-04-09T11:25:54.202Z,21.52
2023-04-09T11:28:21.446Z,19.42
2023-04-09T11:30:51.102Z,24.83
2023-04-09T11:33:19.978Z,19.67
2023-04-09T11:35:47.472Z,19.95
2023-04-09T11:38:14.327Z,19.85
2023-04-09T11:40:47.793Z,14.52
2023-04-09T11:45:44.351Z,16.73
2023-04-09T11:48:12.077Z,19.20
2023-04-09T11:50:39.463Z,18.45
2023-04-09T11:53:37.284Z,17.77
2023-04-09T11:56:04.534Z,17.73
2023-04-09T11:58:32.093Z,16.50
2023-04-09T12:00:59.242Z,17.23
2023-04-09T12:03:34.937Z,19.50
2023-04-09T12:06:03.212Z,19.63
2023-04-09T12:08:31.161Z,20.90
2023-04-09T12:11:07.301Z,19.60
2023-04-09T12:13:34.209Z,15.48
2023-04-09T12:16:03.147Z,15.50
2023-04-09T12:18:30.241Z,17.90
2023-04-09T12:20:57.075Z,16.40
2023-04-09T12:23:23.797Z,21.13
2023-04-09T12:25:50.556Z,22.73
2023-04-09T12:28:18.126Z,23.27
2023-04-09T12:30:45.746Z,17.90
2023-04-09T12:33:12.503Z,19.83
2023-04-09T12:35:39.521Z,17.80
2023-04-09T12:38:06.530Z,19.63
2023-04-09T12:40:34.697Z,19.65
2023-04-09T12:43:02.324Z,21.60
2023-04-09T12:45:30.373Z,16.83
2023-04-09T12:47:57.246Z,19.65
2023-04-09T12:50:24.390Z,14.38
2023-04-09T12:52:51.213Z,13.95
2023-04-09T12:55:18.062Z,14.20
2023-04-09T12:57:46.959Z,14.82
2023-04-09T13:00:14.510Z,14.20
2023-04-09T13:02:41.566Z,14.40
2023-04-09T13:05:08.700Z,15.63
2023-04-09T13:07:35.714Z,13.35
2023-04-09T13:10:02.603Z,15.02
2023-04-09T13:12:30.098Z,13.40
2023-04-09T13:14:57.102Z,13.90
2023-04-09T13:17:23.849Z,16.75
2023-04-09T13:19:51.867Z,19.63
2023-04-09T13:22:19.234Z,15.60
2023-04-09T13:24:46.169Z,12.95
2023-04-09T13:27:13.210Z,20.67
2023-04-09T13:29:39.956Z,17.20
2023-04-09T13:32:07.485Z,15.32
2023-04-09T13:34:35.322Z,18.33
2023-04-09T13:37:03.029Z,11.55
2023-04-09T13:39:29.825Z,14.35
2023-04-09T13:41:56.886Z,15.57
2023-04-09T13:44:24.704Z,12.13
2023-04-09T13:46:51.638Z,13.88
2023-04-09T13:49:18.585Z,14.25
2023-04-09T13:51:45.902Z,11.50
2023-04-09T13:54:13.095Z,9.32
2023-04-09T13:56:39.951Z,13.02
2023-04-09T13:59:06.957Z,12.18
2023-04-09T14:01:34.440Z,16.40
2023-04-09T14:04:01.456Z,12.20
2023-04-09T14:06:28.347Z,13.30
2023-04-09T14:08:55.864Z,14.75
2023-04-09T14:11:22.935Z,13.00
2023-04-09T14:13:49.677Z,11.85
2023-04-09T14:16:16.494Z,11.20
2023-04-09T14:18:43.294Z,10.35
2023-04-09T14:21:10.457Z,11.23
2023-04-09T14:23:39.005Z,11.20
2023-04-09T14:26:06.459Z,18.02
2023-04-09T14:28:33.252Z,11.85
2023-04-09T14:31:00.192Z,8.35
2023-04-09T14:33:27.148Z,8.82
2023-04-09T14:35:54.086Z,10.68
2023-04-09T14:38:20.847Z,12.35
2023-04-09T14:40:47.621Z,14.07
2023-04-09T14:43:14.441Z,10.57
2023-04-09T14:45:41.374Z,14.05
2023-04-09T14:48:08.666Z,12.60
2023-04-09T14:50:36.628Z,9.43
2023-04-09T14:53:06.644Z,11.32
2023-04-09T14:55:33.382Z,9.55
2023-04-09T14:58:03.525Z,11.13
2023-04-09T15:00:31.491Z,12.85
2023-04-09T15:02:58.505Z,19.77
2023-04-09T15:05:25.593Z,13.75
2023-04-09T15:07:52.412Z,9.90
2023-04-09T15:10:19.196Z,9.32
2023-04-09T15:12:46.076Z,9.50
2023-04-09T15:15:14.355Z,8.98
2023-04-09T15:17:41.141Z,8.00
2023-04-09T15:20:08.469Z,7.88
2023-04-09T15:22:35.334Z,13.52
2023-04-09T15:25:02.280Z,16.23
2023-04-09T15:27:29.100Z,19.27
2023-04-09T15:29:56.060Z,10.82
2023-04-09T15:32:22.867Z,11.07
2023-04-09T15:34:50.221Z,11.25
2023-04-09T15:37:16.999Z,14.88
2023-04-09T15:39:43.945Z,11.07
2023-04-09T15:42:11.665Z,12.07
2023-04-09T15:44:40.458Z,9.60
2023-04-09T15:47:07.716Z,10.38
2023-04-09T15:49:36.647Z,11.20
2023-04-09T15:52:03.913Z,9.13
2023-04-09T15:54:30.935Z,9.73
2023-04-09T15:56:57.607Z,11.82
2023-04-09T15:59:24.459Z,8.57
2023-04-09T16:01:52.814Z,9.60
2023-04-09T16:04:19.649Z,9.88
2023-04-09T16:06:46.427Z,7.35
2023-04-09T16:09:13.280Z,13.05
2023-04-09T16:11:40.602Z,10.35
2023-04-09T16:14:09.269Z,7.18
2023-04-09T16:16:36.797Z,9.38
2023-04-09T16:19:03.839Z,7.28
2023-04-09T16:21:31.138Z,9.10
2023-04-09T16:23:58.018Z,10.48
2023-04-09T16:26:24.861Z,13.48
2023-04-09T16:28:51.919Z,7.35
2023-04-09T16:31:18.957Z,8.07
2023-04-09T16:33:45.708Z,7.82
2023-04-09T16:36:12.520Z,6.68
2023-04-09T16:38:39.342Z,7.93
2023-04-09T16:41:06.277Z,9.05
2023-04-09T16:43:33.020Z,9.93
2023-04-09T16:46:00.302Z,7.15
2023-04-09T16:48:27.190Z,9.55
2023-04-09T16:50:53.983Z,7.10
2023-04-09T16:53:20.768Z,5.78
2023-04-09T16:55:47.512Z,6.95
2023-04-09T16:58:14.275Z,4.55
2023-04-09T17:00:41.564Z,5.53
2023-04-09T17:03:08.608Z,5.57
2023-04-09T17:05:35.727Z,6.63
2023-04-09T17:08:02.454Z,6.63
2023-04-09T17:10:29.202Z,4.72
2023-04-09T17:12:56.285Z,5.97
2023-04-09T17:15:24.890Z,3.65
2023-04-09T17:17:53.576Z,5.50
2023-04-09T17:20:22.660Z,6.28
2023-04-09T17:22:49.529Z,3.47
2023-04-09T17:25:16.498Z,6.68
2023-04-09T17:27:45.145Z,5.43
2023-04-09T17:30:12.508Z,5.43
2023-04-09T17:32:39.723Z,5.75
2023-04-09T17:35:10.251Z,4.15
2023-04-09T17:37:38.539Z,4.25
2023-04-09T17:40:06.396Z,6.53
2023-04-09T17:42:33.043Z,8.93
2023-04-09T17:45:00.030Z,7.53
2023-04-09T17:47:27.278Z,4.88
2023-04-09T17:50:12.385Z,4.45
2023-04-09T17:52:40.499Z,5.88
2023-04-09T17:55:12.332Z,4.70
2023-04-09T17:57:40.006Z,6.18
2023-04-09T18:00:17.076Z,6.47
2023-04-09T18:02:47.036Z,3.63
2023-04-09T18:05:14.134Z,3.60
2023-04-09T18:07:41.094Z,4.40
2023-04-09T18:10:08.195Z,5.57
2023-04-09T18:12:34.885Z,6.30
2023-04-09T18:15:01.912Z,4.97
2023-04-09T18:17:28.695Z,5.88
2023-04-09T18:19:58.009Z,4.22
2023-04-09T18:22:25.509Z,5.75
2023-04-09T18:24:52.643Z,4.63
2023-04-09T18:27:20.246Z,5.72
2023-04-09T18:29:49.072Z,4.45
2023-04-09T18:32:16.944Z,4.22
2023-04-09T18:34:45.030Z,3.05
2023-04-09T18:37:12.066Z,4.60
2023-04-09T18:39:39.838Z,5.10
2023-04-09T18:42:06.641Z,4.53
2023-04-09T18:44:36.210Z,4.90
2023-04-09T18:47:05.534Z,2.97
2023-04-09T18:49:33.346Z,6.43
2023-04-09T18:52:00.606Z,3.85
2023-04-09T18:54:27.624Z,6.63
2023-04-09T18:56:54.421Z,7.82
2023-04-09T18:59:21.693Z,4.95
2023-04-09T19:01:48.557Z,6.05
2023-04-09T19:04:16.736Z,3.28
2023-04-09T19:06:46.083Z,5.25
2023-04-09T19:09:12.932Z,4.85
2023-04-09T19:11:39.685Z,7.35
2023-04-09T19:14:06.547Z,5.07
2023-04-09T19:16:33.440Z,7.13
2023-04-09T19:19:00.223Z,8.55
2023-04-09T19:21:28.889Z,5.03
2023-04-09T19:23:56.077Z,9.50
2023-04-09T19:26:23.012Z,5.90
2023-04-09T19:28:49.770Z,6.03
2023-04-09T19:31:16.911Z,4.57
2023-04-09T19:33:43.651Z,4.50
2023-04-09T19:36:10.430Z,7.18
2023-04-09T19:38:37.140Z,6.85
2023-04-09T19:41:04.134Z,8.10
2023-04-09T19:43:30.898Z,5.68
2023-04-09T19:45:57.619Z,7.40
2023-04-09T19:48:24.808Z,5.28
2023-04-09T19:50:52.426Z,7.68
2023-04-09T19:53:19.237Z,6.00
2023-04-09T19:55:45.885Z,4.72
2023-04-09T19:58:12.619Z,6.97
2023-04-09T20:00:40.397Z,6.03
2023-04-09T20:03:07.592Z,5.35
2023-04-09T20:05:34.487Z,6.32
2023-04-09T20:08:01.366Z,5.22
2023-04-09T20:10:28.150Z,5.45
2023-04-09T20:12:54.909Z,6.32
2023-04-09T20:15:21.708Z,7.65
2023-04-09T20:18:08.050Z,6.45
2023-04-09T20:20:35.356Z,7.35
2023-04-09T20:23:02.166Z,6.22
2023-04-09T20:25:34.313Z,4.88
2023-04-09T20:28:02.389Z,9.90
2023-04-09T20:30:31.918Z,7.55
2023-04-09T20:32:58.941Z,5.43
2023-04-09T20:35:27.226Z,13.10
2023-04-09T20:37:55.004Z,7.53
2023-04-09T20:40:22.187Z,6.03
2023-04-09T20:42:48.986Z,5.68
2023-04-09T20:45:16.095Z,6.55
2023-04-09T20:47:42.889Z,5.70
2023-04-09T20:50:10.401Z,7.55
2023-04-09T20:52:37.562Z,7.00
2023-04-09T20:55:04.674Z,5.85
2023-04-09T20:57:31.412Z,6.75
2023-04-09T20:59:58.147Z,7.43
2023-04-09T21:02:25.529Z,6.70
2023-04-09T21:04:52.531Z,7.53
2023-04-09T21:07:19.319Z,7.35
2023-04-09T21:09:46.675Z,6.35
2023-04-09T21:12:13.379Z,7.85
2023-04-09T21:14:41.514Z,6.38
2023-04-09T21:17:09.798Z,7.15
2023-04-09T21:19:36.544Z,9.30
2023-04-09T21:22:03.622Z,7.43
2023-04-09T21:24:31.288Z,8.27
2023-04-09T21:26:58.730Z,13.15
2023-04-09T21:29:25.524Z,9.65
2023-04-09T21:31:52.326Z,9.23
2023-04-09T21:34:19.150Z,8.15
2023-04-09T21:36:47.173Z,8.00
2023-04-09T21:39:13.882Z,9.40
2023-04-09T21:41:41.462Z,10.95
2023-04-09T21:44:08.722Z,7.25
2023-04-09T21:46:37.153Z,8.63
2023-04-09T21:49:04.409Z,8.73
2023-04-09T21:51:31.893Z,6.53
2023-04-09T21:54:16.846Z,7.50
2023-04-09T21:56:43.532Z,9.00
2023-04-09T21:59:10.515Z,9.20
2023-04-09T22:01:37.383Z,8.48
2023-04-09T22:04:04.694Z,8.77
2023-04-09T22:06:32.134Z,8.80
2023-04-09T22:08:59.096Z,9.93
2023-04-09T22:11:27.481Z,8.13
2023-04-09T22:13:56.131Z,9.93
2023-04-09T22:16:23.642Z,9.10
2023-04-09T22:18:51.460Z,7.85
2023-04-09T22:21:18.518Z,7.70
2023-04-09T22:23:45.286Z,11.00
2023-04-09T22:26:15.122Z,6.20
2023-04-09T22:28:41.849Z,6.80
2023-04-09T22:31:08.761Z,6.18
2023-04-09T22:33:35.911Z,7.38
2023-04-09T22:36:02.721Z,9.70
2023-04-09T22:38:29.544Z,8.27
2023-04-09T22:40:56.332Z,10.13
2023-04-09T22:43:23.142Z,8.93
2023-04-09T22:45:54.076Z,7.60
2023-04-09T22:48:21.803Z,11.95
2023-04-09T22:50:49.778Z,10.05
2023-04-09T22:53:20.606Z,6.93
2023-04-09T22:55:50.773Z,7.20
2023-04-09T22:58:18.518Z,8.15
2023-04-09T23:00:46.819Z,12.60
2023-04-09T23:03:13.752Z,8.90
2023-04-09T23:05:40.734Z,11.25
2023-04-09T23:08:07.545Z,9.80
2023-04-09T23:10:34.506Z,6.85
2023-04-09T23:13:01.542Z,11.27
2023-04-09T23:15:29.060Z,9.93
2023-04-09T23:17:55.976Z,8.27
2023-04-09T23:20:23.135Z,9.38
2023-04-09T23:22:50.164Z,7.20
2023-04-09T23:25:17.497Z,8.70
2023-04-09T23:27:44.682Z,9.93
2023-04-09T23:30:16.430Z,10.25
2023-04-09T23:32:46.245Z,7.50
2023-04-09T23:35:14.595Z,9.25
2023-04-09T23:37:43.454Z,8.82
2023-04-09T23:40:14.623Z,9.27
2023-04-09T23:42:48.020Z,8.18
2023-04-09T23:45:17.299Z,8.35
2023-04-09T23:47:45.851Z,9.15
2023-04-09T23:50:12.711Z,10.57
2023-04-09T23:52:45.432Z,7.53
2023-04-09T23:55:12.299Z,8.30
2023-04-09T23:57:40.089Z,9.07
